Time;durP1;ratioP1;P1;durP2;ratioP2;P2;SDS_P1;SDS_P2;PMS_P1;PMS_P2;Temp;Humidity;BMP_temperature;BMP_pressure;BME280_temperature;BME280_humidity;BME280_pressure;Samples;Min_cycle;Max_cycle;Signal;HPM_P1;HPM_P2
2022/04/28 00:02:25;;;;;;;13.05;3.40;;;8.60;99.90;;;;;;5018832;28;20156;-49
2022/04/28 00:04:51;;;;;;;13.32;3.15;;;8.60;99.90;;;;;;5019060;28;20752;-50
2022/04/28 00:07:16;;;;;;;10.27;3.45;;;8.50;99.90;;;;;;5019812;28;20084;-49
2022/04/28 00:09:42;;;;;;;15.43;3.53;;;8.60;99.90;;;;;;5018276;28;20038;-48
2022/04/28 00:12:10;;;;;;;11.10;2.78;;;8.60;99.90;;;;;;5002059;28;20045;-49
2022/04/28 00:14:36;;;;;;;10.70;2.65;;;8.60;99.90;;;;;;5018651;28;20049;-51
2022/04/28 00:17:03;;;;;;;9.82;3.10;;;8.60;99.90;;;;;;5023354;28;20046;-52
2022/04/28 00:19:28;;;;;;;12.30;4.18;;;8.60;99.90;;;;;;5022437;28;20045;-52
2022/04/28 00:21:54;;;;;;;11.77;3.45;;;8.60;99.90;;;;;;5022627;28;20124;-49
2022/04/28 00:24:20;;;;;;;9.90;3.67;;;8.60;99.90;;;;;;5023720;28;20066;-52
2022/04/28 00:26:45;;;;;;;10.80;3.88;;;8.60;99.90;;;;;;5004386;28;20060;-51
2022/04/28 00:29:11;;;;;;;10.20;3.25;;;8.60;99.90;;;;;;5023731;28;20167;-53
2022/04/28 00:31:37;;;;;;;9.73;2.95;;;8.60;99.90;;;;;;5021872;28;20495;-52
2022/04/28 00:34:03;;;;;;;10.73;3.47;;;8.60;99.90;;;;;;5023302;28;20105;-52
2022/04/28 00:36:29;;;;;;;9.55;2.90;;;8.60;99.90;;;;;;5022181;28;20097;-50
2022/04/28 00:38:55;;;;;;;12.20;3.03;;;8.60;99.90;;;;;;5022833;28;20053;-52
2022/04/28 00:41:21;;;;;;;7.88;3.35;;;8.60;99.90;;;;;;5022959;28;20041;-52
2022/04/28 00:43:50;;;;;;;8.63;3.10;;;8.70;99.90;;;;;;5022047;28;20371;-51
2022/04/28 00:46:15;;;;;;;10.93;3.35;;;8.70;99.90;;;;;;5023194;28;20053;-52
2022/04/28 00:51:26;;;;;;;9.75;3.35;;;8.70;99.90;;;;;;5020355;28;20085;-51
2022/04/28 00:53:53;;;;;;;8.13;3.17;;;8.60;99.90;;;;;;5021863;28;20050;-53
2022/04/28 00:56:18;;;;;;;13.75;3.97;;;8.60;99.90;;;;;;5004280;28;20112;-53
2022/04/28 00:58:46;;;;;;;12.57;3.22;;;8.50;99.90;;;;;;5023001;28;20708;-53
2022/04/28 01:01:11;;;;;;;13.27;3.67;;;8.50;99.90;;;;;;5021070;28;20050;-49
2022/04/28 01:03:37;;;;;;;14.02;3.95;;;8.50;99.90;;;;;;5022969;28;20053;-49
2022/04/28 01:06:03;;;;;;;9.35;3.20;;;8.40;99.90;;;;;;5021551;28;20042;-50
2022/04/28 01:08:29;;;;;;;13.40;3.50;;;8.50;99.90;;;;;;5022434;28;20042;-52
2022/04/28 01:10:56;;;;;;;11.32;3.60;;;8.40;99.90;;;;;;5021510;28;20033;-51
2022/04/28 01:13:22;;;;;;;12.43;3.70;;;8.50;99.90;;;;;;5021777;28;20073;-51
2022/04/28 01:15:49;;;;;;;9.93;3.65;;;8.50;99.90;;;;;;5022564;28;20477;-49
2022/04/28 01:18:16;;;;;;;10.40;3.53;;;8.50;99.90;;;;;;5021103;28;20127;-51
2022/04/28 01:20:42;;;;;;;9.55;3.20;;;8.50;99.90;;;;;;5022212;28;20062;-53
2022/04/28 01:23:09;;;;;;;9.02;3.72;;;8.50;99.90;;;;;;5020780;28;20049;-52
2022/04/28 01:25:35;;;;;;;11.00;3.80;;;8.50;99.90;;;;;;5021573;28;20042;-49
2022/04/28 01:28:01;;;;;;;13.77;3.20;;;8.60;99.90;;;;;;5021143;28;20089;-52
2022/04/28 01:30:27;;;;;;;14.70;4.43;;;8.50;99.90;;;;;;5021609;28;20060;-52
2022/04/28 01:32:54;;;;;;;8.63;3.10;;;8.50;99.90;;;;;;5022062;28;20045;-52
2022/04/28 01:35:20;;;;;;;9.35;3.08;;;8.50;99.90;;;;;;5020663;28;20212;-51
2022/04/28 01:37:46;;;;;;;10.63;3.15;;;8.50;99.90;;;;;;5022069;28;20041;-50
2022/04/28 01:40:12;;;;;;;11.60;3.38;;;8.60;99.90;;;;;;5020593;28;20046;-51
2022/04/28 01:42:39;;;;;;;13.00;4.50;;;8.50;99.90;;;;;;5021662;28;20065;-51
2022/04/28 01:45:09;;;;;;;9.43;4.07;;;8.60;99.90;;;;;;5020804;28;20037;-51
2022/04/28 01:47:35;;;;;;;11.68;4.50;;;8.60;99.90;;;;;;5021382;28;20048;-53
2022/04/28 01:50:02;;;;;;;10.68;4.50;;;8.70;99.90;;;;;;5021557;28;20174;-52
2022/04/28 01:55:12;;;;;;;8.45;3.50;;;8.60;99.90;;;;;;5021699;28;20096;-50
2022/04/28 01:57:39;;;;;;;13.32;3.47;;;8.40;99.90;;;;;;5020286;28;20050;-48
2022/04/28 02:00:06;;;;;;;15.52;3.83;;;8.50;99.90;;;;;;5003734;28;20471;-53
2022/04/28 02:02:35;;;;;;;7.80;3.38;;;8.40;99.90;;;;;;5019478;28;20058;-50
2022/04/28 02:05:03;;;;;;;10.30;3.53;;;8.40;99.90;;;;;;5002674;28;20535;-52
2022/04/28 02:07:29;;;;;;;14.02;3.78;;;8.40;99.90;;;;;;5021656;28;20049;-52
2022/04/28 02:09:56;;;;;;;12.35;3.60;;;8.30;99.90;;;;;;5019857;28;20442;-52
2022/04/28 02:12:22;;;;;;;9.38;3.45;;;8.50;99.90;;;;;;5021406;28;20034;-53
2022/04/28 02:14:48;;;;;;;15.43;4.25;;;8.40;99.90;;;;;;5002403;28;20105;-52
2022/04/28 02:17:25;;;;;;;8.15;3.17;;;8.40;99.90;;;;;;5021157;28;20038;-51
2022/04/28 02:19:51;;;;;;;9.13;3.72;;;8.40;99.90;;;;;;5020932;28;20046;-51
2022/04/28 02:22:17;;;;;;;11.57;4.05;;;8.50;99.90;;;;;;5019591;28;20041;-55
2022/04/28 02:24:43;;;;;;;12.43;3.38;;;8.50;99.90;;;;;;5003627;28;20038;-56
2022/04/28 02:27:09;;;;;;;7.95;3.63;;;8.50;99.90;;;;;;5019670;28;20066;-53
2022/04/28 02:29:35;;;;;;;9.10;3.70;;;8.50;99.90;;;;;;5020798;28;20056;-50
2022/04/28 02:32:01;;;;;;;11.45;4.03;;;8.40;99.90;;;;;;5019600;28;20806;-52
2022/04/28 02:34:27;;;;;;;11.02;3.67;;;8.40;99.90;;;;;;5020880;28;20034;-50
2022/04/28 02:36:53;;;;;;;9.77;3.40;;;8.30;99.90;;;;;;5020167;28;20046;-53
2022/04/28 02:39:19;;;;;;;12.80;3.67;;;8.50;99.90;;;;;;5019158;28;20129;-53
2022/04/28 02:41:45;;;;;;;8.57;3.90;;;8.40;99.90;;;;;;5021097;28;20108;-50
2022/04/28 02:44:14;;;;;;;8.48;3.78;;;8.40;99.90;;;;;;5001498;28;20057;-50
2022/04/28 02:46:43;;;;;;;8.40;3.92;;;8.40;99.90;;;;;;5020819;28;20038;-51
2022/04/28 02:49:09;;;;;;;8.98;4.25;;;8.40;99.90;;;;;;5019193;28;20045;-51
2022/04/28 02:51:35;;;;;;;12.55;3.75;;;8.40;99.90;;;;;;5020286;28;20070;-53
2022/04/28 02:54:01;;;;;;;10.85;3.95;;;8.40;99.90;;;;;;5019994;28;20045;-49
2022/04/28 02:56:27;;;;;;;10.27;3.72;;;8.40;99.90;;;;;;5019416;28;20050;-52
2022/04/28 02:58:54;;;;;;;10.55;4.05;;;8.30;99.90;;;;;;5020712;28;20045;-51
2022/04/28 03:01:20;;;;;;;12.55;4.65;;;8.30;99.90;;;;;;5000930;28;20058;-50
2022/04/28 03:03:46;;;;;;;11.30;4.00;;;8.20;99.90;;;;;;5020398;28;20728;-53
2022/04/28 03:11:41;;;;;;;11.07;4.30;;;8.40;99.90;;;;;;5020644;28;20080;-50
2022/04/28 03:14:08;;;;;;;9.75;4.68;;;8.30;99.90;;;;;;5018702;28;20046;-53
2022/04/28 03:16:35;;;;;;;10.82;4.32;;;8.30;99.90;;;;;;5020070;28;20393;-50
2022/04/28 03:19:01;;;;;;;14.32;4.47;;;8.40;99.90;;;;;;5018968;28;20080;-49
2022/04/28 03:21:27;;;;;;;11.10;4.47;;;8.30;99.90;;;;;;5019542;28;20049;-53
2022/04/28 03:23:53;;;;;;;12.88;4.88;;;8.30;99.90;;;;;;5001736;28;20069;-52
2022/04/28 03:26:19;;;;;;;9.98;4.38;;;8.20;99.90;;;;;;5019133;28;20050;-53
2022/04/28 03:28:44;;;;;;;9.82;4.32;;;8.10;99.90;;;;;;5020227;28;20052;-49
2022/04/28 03:31:10;;;;;;;11.10;4.25;;;8.20;99.90;;;;;;5018400;28;20125;-52
2022/04/28 03:33:36;;;;;;;13.20;4.25;;;8.10;99.90;;;;;;5020116;28;20038;-50
2022/04/28 03:36:01;;;;;;;12.50;4.18;;;8.10;99.90;;;;;;5018385;28;20046;-52
2022/04/28 03:38:27;;;;;;;9.43;4.03;;;8.10;99.90;;;;;;5019297;28;20049;-51
2022/04/28 03:40:53;;;;;;;10.98;4.18;;;8.00;99.90;;;;;;5018967;28;20045;-52
2022/04/28 03:43:18;;;;;;;10.88;4.72;;;8.10;99.90;;;;;;5019049;28;20072;-50
2022/04/28 03:45:44;;;;;;;14.07;4.72;;;8.10;99.90;;;;;;5019894;28;20038;-51
2022/04/28 03:48:10;;;;;;;10.82;4.15;;;8.10;99.90;;;;;;5018302;28;20057;-52
2022/04/28 03:50:39;;;;;;;8.80;3.67;;;8.00;99.90;;;;;;5019428;28;20061;-51
2022/04/28 03:53:05;;;;;;;11.18;4.40;;;8.00;99.90;;;;;;5018170;28;20058;-52
2022/04/28 03:55:31;;;;;;;11.48;4.32;;;7.90;99.90;;;;;;5019651;28;20045;-51
2022/04/28 03:57:58;;;;;;;9.40;3.95;;;7.90;99.90;;;;;;5018826;28;20080;-51
2022/04/28 04:00:25;;;;;;;10.30;3.67;;;7.90;99.90;;;;;;5018964;28;20072;-50
2022/04/28 04:02:51;;;;;;;9.38;4.60;;;8.00;99.90;;;;;;5020064;28;20046;-52
2022/04/28 04:05:17;;;;;;;8.85;4.30;;;8.00;99.90;;;;;;5018063;28;20057;-52
2022/04/28 04:07:43;;;;;;;11.93;4.82;;;8.10;99.90;;;;;;5019802;28;20072;-51
2022/04/28 04:10:10;;;;;;;10.27;5.18;;;8.10;99.90;;;;;;5018095;28;20046;-51
2022/04/28 04:12:36;;;;;;;11.48;4.70;;;8.10;99.90;;;;;;5019300;28;20109;-53
2022/04/28 04:15:04;;;;;;;11.95;4.80;;;8.10;99.90;;;;;;5018559;28;20041;-52
2022/04/28 04:17:29;;;;;;;11.45;5.07;;;8.20;99.90;;;;;;5019056;28;20036;-52
2022/04/28 04:19:55;;;;;;;9.68;4.88;;;8.30;99.90;;;;;;5019123;28;20113;-50
2022/04/28 04:22:21;;;;;;;13.25;4.30;;;8.30;99.90;;;;;;5017908;28;20041;-50
2022/04/28 04:24:46;;;;;;;11.60;4.60;;;8.30;99.90;;;;;;5002115;28;20397;-52
2022/04/28 04:27:15;;;;;;;12.77;4.78;;;8.40;99.90;;;;;;5018003;28;20428;-53
2022/04/28 04:29:41;;;;;;;14.68;5.68;;;8.50;99.90;;;;;;5019436;28;20625;-49
2022/04/28 04:32:20;;;;;;;12.68;4.95;;;8.50;99.90;;;;;;5018288;28;20037;-50
2022/04/28 04:34:47;;;;;;;13.07;5.25;;;8.60;99.90;;;;;;5002914;28;20110;-51
2022/04/28 04:37:14;;;;;;;12.18;5.22;;;8.60;99.90;;;;;;5019648;28;20050;-49
2022/04/28 04:39:44;;;;;;;12.57;5.15;;;8.70;99.90;;;;;;5017529;28;20049;-51
2022/04/28 04:42:10;;;;;;;12.80;5.93;;;8.80;99.90;;;;;;5019089;28;20057;-50
2022/04/28 04:44:36;;;;;;;14.35;5.70;;;8.80;99.90;;;;;;5017859;28;20092;-53
2022/04/28 04:47:02;;;;;;;16.27;5.57;;;8.90;99.90;;;;;;5000934;28;20053;-51
2022/04/28 04:49:28;;;;;;;12.35;5.43;;;8.90;99.90;;;;;;5018466;28;20133;-51
2022/04/28 04:51:53;;;;;;;13.07;4.05;;;8.90;99.90;;;;;;5017428;28;20130;-51
2022/04/28 04:54:20;;;;;;;11.85;4.50;;;9.00;99.90;;;;;;5018717;28;20741;-50
2022/04/28 04:56:46;;;;;;;10.02;3.50;;;8.90;99.90;;;;;;5016702;28;20045;-52
2022/04/28 04:59:12;;;;;;;9.32;3.13;;;9.10;99.90;;;;;;5018148;28;20065;-52
2022/04/28 05:01:38;;;;;;;10.02;3.30;;;9.00;99.90;;;;;;5018433;28;20453;-51
2022/04/28 05:04:04;;;;;;;11.20;3.42;;;9.00;99.90;;;;;;5003753;28;20092;-48
2022/04/28 05:06:30;;;;;;;10.52;3.35;;;9.00;99.90;;;;;;5020592;28;20046;-51
2022/04/28 05:08:56;;;;;;;7.20;3.05;;;9.00;99.90;;;;;;5020803;28;20045;-54
2022/04/28 05:11:22;;;;;;;11.15;3.20;;;9.00;99.90;;;;;;5021640;28;20053;-54
2022/04/28 05:13:48;;;;;;;9.90;3.63;;;9.00;99.90;;;;;;5019958;28;20048;-50
2022/04/28 05:16:14;;;;;;;10.00;3.22;;;9.00;99.90;;;;;;5021518;28;20041;-53
2022/04/28 05:18:39;;;;;;;10.38;3.05;;;9.10;99.90;;;;;;5019882;28;20046;-50
2022/04/28 05:21:05;;;;;;;10.13;3.30;;;9.10;99.90;;;;;;5003035;28;20050;-50
2022/04/28 05:23:31;;;;;;;11.45;3.97;;;9.00;99.90;;;;;;5019895;28;20065;-52
2022/04/28 05:25:56;;;;;;;12.95;3.20;;;9.10;99.90;;;;;;5020626;28;20042;-51
2022/04/28 05:28:26;;;;;;;12.57;4.22;;;9.10;99.90;;;;;;5021167;28;20065;-50
2022/04/28 05:30:54;;;;;;;13.98;3.45;;;9.10;99.90;;;;;;5019546;28;20038;-53
2022/04/28 05:33:19;;;;;;;10.52;2.92;;;9.10;99.90;;;;;;5003785;28;20060;-53
2022/04/28 05:35:45;;;;;;;11.35;3.63;;;9.10;99.90;;;;;;5016703;28;20073;-53
2022/04/28 05:38:11;;;;;;;10.63;3.38;;;9.00;99.90;;;;;;5017782;28;20049;-53
2022/04/28 05:40:41;;;;;;;9.15;3.20;;;9.00;99.90;;;;;;5016388;28;20097;-52
2022/04/28 05:45:51;;;;;;;12.77;3.50;;;9.10;99.90;;;;;;5018219;28;20917;-52
2022/04/28 05:48:18;;;;;;;10.63;3.13;;;9.00;99.90;;;;;;5015859;28;20072;-53
2022/04/28 05:50:45;;;;;;;12.05;3.22;;;9.10;99.90;;;;;;4980097;28;1087510;-50
2022/04/28 05:53:11;;;;;;;11.25;3.85;;;9.20;99.90;;;;;;5017134;28;20218;-52
2022/04/28 05:55:38;;;;;;;11.00;4.55;;;9.20;99.90;;;;;;5018078;28;20170;-51
2022/04/28 05:58:04;;;;;;;10.82;3.88;;;9.10;99.90;;;;;;5000367;28;20046;-49
2022/04/28 06:00:31;;;;;;;10.68;4.22;;;9.20;99.90;;;;;;5016879;28;20053;-52
2022/04/28 06:02:57;;;;;;;12.05;4.13;;;9.20;99.90;;;;;;5018903;28;20080;-53
2022/04/28 06:05:23;;;;;;;14.10;3.88;;;9.30;99.90;;;;;;5016699;28;20042;-53
2022/04/28 06:07:49;;;;;;;9.05;4.15;;;9.40;99.90;;;;;;5018549;28;20140;-51
2022/04/28 06:10:15;;;;;;;13.52;4.50;;;9.50;99.90;;;;;;5016885;28;20057;-52
2022/04/28 06:12:42;;;;;;;11.43;3.97;;;9.50;99.90;;;;;;5016588;28;20056;-52
2022/04/28 06:15:08;;;;;;;13.40;4.30;;;9.60;99.90;;;;;;5017511;28;20080;-52
2022/04/28 06:17:34;;;;;;;14.18;4.05;;;9.60;99.90;;;;;;5017342;28;20042;-53
2022/04/28 06:19:59;;;;;;;13.23;3.80;;;9.70;99.90;;;;;;5018205;28;20038;-53
2022/04/28 06:22:25;;;;;;;9.60;3.10;;;9.90;99.90;;;;;;5015894;28;20050;-49
2022/04/28 06:24:55;;;;;;;11.77;3.40;;;9.90;99.90;;;;;;5017788;28;20081;-52
2022/04/28 06:27:21;;;;;;;11.77;2.60;;;9.90;99.90;;;;;;5016520;28;20077;-52
2022/04/28 06:29:49;;;;;;;8.30;2.20;;;9.90;99.90;;;;;;4999945;28;20064;-51
2022/04/28 06:32:18;;;;;;;10.70;2.88;;;9.90;99.90;;;;;;5016953;28;20054;-52
2022/04/28 06:34:45;;;;;;;9.68;2.88;;;9.80;99.90;;;;;;5013564;28;20113;-50
2022/04/28 06:37:12;;;;;;;12.35;3.03;;;9.70;99.90;;;;;;5018228;28;20046;-53
2022/04/28 06:39:38;;;;;;;10.00;3.45;;;9.60;99.90;;;;;;5016050;28;20053;-50
2022/04/28 06:42:04;;;;;;;12.50;2.70;;;9.50;99.90;;;;;;5017829;28;20050;-53
2022/04/28 06:44:30;;;;;;;10.50;2.55;;;9.50;99.90;;;;;;5016230;28;20049;-53
2022/04/28 06:46:55;;;;;;;9.00;1.98;;;9.40;99.90;;;;;;4999635;28;20050;-54
2022/04/28 06:49:21;;;;;;;7.97;2.15;;;9.40;99.90;;;;;;5017944;28;20034;-53
2022/04/28 06:51:47;;;;;;;10.85;2.25;;;9.40;99.90;;;;;;5019510;28;20359;-53
2022/04/28 06:54:12;;;;;;;9.90;2.40;;;9.40;99.90;;;;;;5021023;28;20056;-52
2022/04/28 06:56:39;;;;;;;10.45;2.35;;;9.40;99.90;;;;;;5019312;28;20041;-53
2022/04/28 06:59:04;;;;;;;10.63;2.30;;;9.30;99.90;;;;;;5020942;28;20101;-50
2022/04/28 07:01:31;;;;;;;13.52;2.05;;;9.30;99.90;;;;;;5007961;28;20046;-53
2022/04/28 07:03:57;;;;;;;8.35;2.20;;;9.30;99.90;;;;;;5000695;28;20050;-53
2022/04/28 07:06:22;;;;;;;12.50;1.90;;;9.30;99.90;;;;;;5000101;28;20046;-53
2022/04/28 07:08:49;;;;;;;11.02;2.08;;;9.30;99.90;;;;;;5000383;28;20247;-52
2022/04/28 07:11:15;;;;;;;7.35;1.83;;;9.30;99.90;;;;;;4983110;28;20050;-51
2022/04/28 07:13:41;;;;;;;7.78;1.83;;;9.40;99.90;;;;;;4999611;28;20078;-52
2022/04/28 07:16:07;;;;;;;8.02;2.05;;;9.40;99.90;;;;;;5014212;28;20128;-52
2022/04/28 07:18:33;;;;;;;8.40;2.63;;;9.30;99.90;;;;;;5038531;28;20050;-51
2022/04/28 07:21:03;;;;;;;7.63;2.17;;;9.40;99.90;;;;;;5040139;28;20049;-54
2022/04/28 07:23:29;;;;;;;7.30;2.10;;;9.40;99.90;;;;;;5038335;28;20124;-53
2022/04/28 07:25:55;;;;;;;8.13;2.22;;;9.50;99.90;;;;;;5039609;28;20121;-53
2022/04/28 07:28:20;;;;;;;9.10;2.95;;;9.60;99.90;;;;;;5005676;28;20080;-52
2022/04/28 07:30:46;;;;;;;8.73;2.33;;;9.60;99.90;;;;;;5038720;28;20041;-50
2022/04/28 07:33:12;;;;;;;8.75;2.10;;;9.70;99.90;;;;;;5022353;28;20037;-52
2022/04/28 07:35:38;;;;;;;10.65;2.33;;;9.80;99.90;;;;;;5038278;28;20041;-52
2022/04/28 07:38:04;;;;;;;10.18;2.50;;;9.80;99.90;;;;;;5039614;28;20046;-50
2022/04/28 07:40:30;;;;;;;10.10;2.22;;;9.80;99.90;;;;;;5038122;28;20083;-51
2022/04/28 07:42:56;;;;;;;8.05;2.00;;;9.90;99.90;;;;;;5039247;28;20057;-53
2022/04/28 07:45:25;;;;;;;9.82;2.28;;;10.00;99.90;;;;;;5039145;28;20180;-53
2022/04/28 07:47:51;;;;;;;7.95;2.00;;;10.00;99.90;;;;;;5038298;28;20055;-52
2022/04/28 07:50:17;;;;;;;6.93;1.90;;;10.00;99.90;;;;;;5039722;28;20124;-51
2022/04/28 07:52:44;;;;;;;8.45;1.88;;;10.10;99.90;;;;;;5037932;28;20053;-50
2022/04/28 07:55:11;;;;;;;7.47;1.98;;;10.10;99.90;;;;;;5039343;28;20477;-51
2022/04/28 07:57:37;;;;;;;6.18;1.60;;;10.10;99.90;;;;;;5038412;28;20049;-54
2022/04/28 08:00:05;;;;;;;10.90;2.00;;;10.40;99.90;;;;;;5039234;28;20045;-52
2022/04/28 08:02:32;;;;;;;8.35;2.00;;;10.40;99.90;;;;;;5020111;28;20486;-52
2022/04/28 08:04:57;;;;;;;9.27;1.92;;;10.40;99.90;;;;;;5018274;28;20077;-52
2022/04/28 08:07:23;;;;;;;7.72;1.45;;;10.50;99.90;;;;;;5019968;28;20042;-51
2022/04/28 08:09:49;;;;;;;14.30;3.28;;;10.40;99.90;;;;;;5018110;28;20037;-51
2022/04/28 08:12:15;;;;;;;7.13;1.75;;;10.50;99.90;;;;;;5019583;28;20073;-52
2022/04/28 08:14:41;;;;;;;9.63;1.92;;;10.60;99.90;;;;;;5022372;28;20049;-51
2022/04/28 08:17:07;;;;;;;10.00;2.17;;;10.60;99.90;;;;;;5039037;28;20655;-50
2022/04/28 08:19:34;;;;;;;7.47;1.80;;;10.70;99.90;;;;;;5038593;28;20042;-49
2022/04/28 08:22:00;;;;;;;11.15;1.98;;;10.70;99.90;;;;;;5037911;28;20133;-53
2022/04/28 08:24:26;;;;;;;10.55;2.00;;;10.70;99.90;;;;;;5039574;28;20048;-52
2022/04/28 08:26:54;;;;;;;9.55;2.30;;;11.00;99.90;;;;;;5037857;28;20042;-50
2022/04/28 08:29:21;;;;;;;9.35;2.42;;;11.10;99.90;;;;;;5039111;28;20045;-53
2022/04/28 08:31:47;;;;;;;9.98;2.60;;;11.20;99.90;;;;;;5037616;28;20049;-53
2022/04/28 08:34:14;;;;;;;10.02;1.80;;;11.30;99.90;;;;;;5038553;28;20045;-53
2022/04/28 08:36:41;;;;;;;9.98;2.30;;;11.40;99.90;;;;;;5040713;28;20041;-50
2022/04/28 08:39:07;;;;;;;10.05;2.15;;;11.30;99.90;;;;;;5041765;28;20044;-52
2022/04/28 08:41:36;;;;;;;12.70;2.08;;;11.40;99.90;;;;;;5042922;28;20060;-50
2022/04/28 08:44:04;;;;;;;9.57;2.13;;;11.50;99.90;;;;;;5041315;28;20046;-51
2022/04/28 08:49:16;;;;;;;8.88;3.50;;;11.50;99.90;;;;;;5041624;28;20045;-53
2022/04/28 08:51:43;;;;;;;13.20;3.25;;;11.30;99.90;;;;;;5041544;28;20495;-53
2022/04/28 08:54:10;;;;;;;16.63;4.18;;;11.30;99.90;;;;;;5042318;28;20056;-52
2022/04/28 08:56:36;;;;;;;8.18;2.70;;;11.10;99.90;;;;;;5040890;28;20048;-53
2022/04/28 08:59:03;;;;;;;12.02;2.60;;;11.40;99.90;;;;;;5042482;28;20073;-54
2022/04/28 09:01:29;;;;;;;10.40;2.58;;;11.20;99.90;;;;;;5030049;28;20583;-52
2022/04/28 09:03:59;;;;;;;11.05;3.00;;;11.30;99.90;;;;;;5022451;28;20545;-53
2022/04/28 09:06:33;;;;;;;9.32;3.15;;;11.30;99.90;;;;;;5021585;28;20046;-52
2022/04/28 09:09:00;;;;;;;7.85;2.38;;;11.30;99.90;;;;;;5021781;28;20081;-53
2022/04/28 09:11:28;;;;;;;8.05;3.03;;;11.30;99.90;;;;;;5022885;28;20038;-51
2022/04/28 09:14:09;;;;;;;10.25;2.63;;;11.40;99.90;;;;;;5020863;28;20097;-52
2022/04/28 09:16:46;;;;;;;11.17;2.83;;;11.30;99.90;;;;;;5042009;28;20053;-51
2022/04/28 09:19:24;;;;;;;9.80;2.90;;;11.20;99.90;;;;;;5041124;28;20061;-53
2022/04/28 09:21:53;;;;;;;12.68;3.33;;;11.30;99.90;;;;;;5040918;28;20068;-53
2022/04/28 09:24:20;;;;;;;8.60;2.88;;;11.50;99.90;;;;;;5042360;28;20045;-49
2022/04/28 09:26:48;;;;;;;9.77;3.15;;;11.50;99.90;;;;;;5040479;28;20125;-53
2022/04/28 09:29:15;;;;;;;13.25;3.63;;;11.40;99.90;;;;;;5042118;28;20076;-52
2022/04/28 09:31:44;;;;;;;11.65;3.65;;;11.30;99.90;;;;;;5040611;28;20055;-53
2022/04/28 09:34:19;;;;;;;9.95;3.60;;;11.30;99.90;;;;;;5041822;28;20038;-53
2022/04/28 09:36:46;;;;;;;10.40;3.72;;;11.40;99.90;;;;;;5041432;28;20042;-52
2022/04/28 09:42:31;;;;;;;8.98;3.40;;;11.40;99.90;;;;;;4953175;28;20055;-51
2022/04/28 09:45:01;;;;;;;10.65;3.67;;;11.40;99.90;;;;;;5040428;28;20509;-53
2022/04/28 09:47:29;;;;;;;12.98;3.35;;;11.40;99.90;;;;;;5040253;28;20061;-51
2022/04/28 09:49:57;;;;;;;9.05;3.28;;;11.60;99.90;;;;;;5041378;28;20099;-51
2022/04/28 09:52:26;;;;;;;11.20;3.08;;;11.60;99.90;;;;;;5039090;28;20588;-52
2022/04/28 09:54:54;;;;;;;11.90;3.28;;;11.60;99.90;;;;;;5041314;28;20045;-53
2022/04/28 09:57:21;;;;;;;9.27;3.72;;;11.60;99.90;;;;;;5039776;28;20037;-53
2022/04/28 09:59:48;;;;;;;9.75;3.00;;;11.40;99.90;;;;;;5023209;28;20096;-51
2022/04/28 10:02:17;;;;;;;12.25;3.70;;;11.60;99.90;;;;;;5005744;28;20053;-53
2022/04/28 10:04:44;;;;;;;11.40;3.50;;;11.70;99.90;;;;;;5020321;28;20034;-53
2022/04/28 10:07:14;;;;;;;14.38;3.15;;;11.60;99.90;;;;;;5021623;28;20045;-53
2022/04/28 10:09:41;;;;;;;9.38;3.15;;;11.80;99.90;;;;;;5001888;28;20102;-54
2022/04/28 10:12:08;;;;;;;11.88;3.40;;;11.80;99.90;;;;;;5021457;28;20077;-50
2022/04/28 10:14:39;;;;;;;10.95;3.83;;;11.90;99.90;;;;;;4992541;28;20046;-52
2022/04/28 10:17:10;;;;;;;10.43;3.13;;;11.90;99.90;;;;;;5007549;28;20140;-52
2022/04/28 10:19:41;;;;;;;9.48;2.88;;;11.70;99.90;;;;;;5007755;28;20076;-54
2022/04/28 10:22:11;;;;;;;14.13;3.60;;;12.00;99.90;;;;;;5006015;28;20105;-51
2022/04/28 10:33:00;;;;;;;12.30;3.35;;;12.10;99.90;;;;;;5002281;28;20053;-52
2022/04/28 10:35:55;;;;;;;12.85;3.10;;;12.00;99.90;;;;;;5001966;28;20050;-52
2022/04/28 10:38:30;;;;;;;11.27;3.00;;;12.20;99.90;;;;;;5004220;28;20056;-49
2022/04/28 10:41:03;;;;;;;11.95;2.60;;;12.00;99.90;;;;;;5000935;28;20050;-53
2022/04/28 10:43:32;;;;;;;9.95;2.47;;;12.00;99.90;;;;;;5004981;28;20049;-50
2022/04/28 10:46:08;;;;;;;11.00;2.95;;;12.00;99.90;;;;;;5007640;28;20050;-53
2022/04/28 10:48:43;;;;;;;15.68;3.42;;;11.90;99.90;;;;;;5005368;28;20050;-52
2022/04/28 10:51:20;;;;;;;13.43;3.10;;;11.90;99.90;;;;;;5002794;28;20054;-51
2022/04/28 10:53:55;;;;;;;11.93;2.60;;;11.80;99.90;;;;;;5002185;28;20160;-49
2022/04/28 10:56:21;;;;;;;11.50;3.00;;;11.80;99.90;;;;;;5010094;28;20100;-51
2022/04/28 10:58:47;;;;;;;11.93;2.50;;;11.60;99.90;;;;;;5020160;28;20052;-50
2022/04/28 11:01:26;;;;;;;13.25;2.65;;;11.70;99.90;;;;;;5017940;28;20046;-51
2022/04/28 11:03:53;;;;;;;10.88;2.88;;;11.90;99.90;;;;;;5001511;28;20054;-50
2022/04/28 11:06:34;;;;;;;11.32;2.67;;;11.90;99.90;;;;;;5018311;28;20524;-49
2022/04/28 11:09:02;;;;;;;13.23;2.90;;;12.00;99.90;;;;;;5017818;28;20045;-52
2022/04/28 11:11:42;;;;;;;9.32;2.67;;;12.00;99.90;;;;;;5019612;28;20042;-52
2022/04/28 11:14:08;;;;;;;8.52;2.67;;;12.10;99.90;;;;;;5016825;28;20133;-51
2022/04/28 11:16:35;;;;;;;13.13;2.50;;;11.90;99.90;;;;;;5039245;28;20041;-50
2022/04/28 11:19:02;;;;;;;12.57;2.67;;;11.90;99.90;;;;;;5038625;28;20045;-54
2022/04/28 11:21:28;;;;;;;16.38;3.05;;;12.00;99.90;;;;;;5038987;28;20096;-53
2022/04/28 11:23:55;;;;;;;12.63;2.67;;;12.00;99.90;;;;;;5039375;28;20038;-51
2022/04/28 11:26:26;;;;;;;11.27;2.70;;;12.00;99.90;;;;;;5037857;28;20308;-51
2022/04/28 11:28:52;;;;;;;14.53;2.87;;;12.00;99.90;;;;;;5039799;28;20080;-53
2022/04/28 11:31:20;;;;;;;19.17;4.63;;;11.70;99.90;;;;;;5037816;28;20276;-50
2022/04/28 11:33:49;;;;;;;11.18;3.15;;;11.80;99.90;;;;;;5039527;28;20041;-49
2022/04/28 11:36:27;;;;;;;11.32;3.05;;;11.90;99.90;;;;;;5038457;28;20215;-49
2022/04/28 11:38:58;;;;;;;12.32;2.55;;;11.90;99.90;;;;;;5038371;28;20108;-52
2022/04/28 11:41:30;;;;;;;12.82;4.03;;;12.00;99.90;;;;;;5039622;28;20076;-52
2022/04/28 11:43:59;;;;;;;9.52;3.13;;;12.20;99.90;;;;;;5037793;28;20100;-51
2022/04/28 11:46:25;;;;;;;13.40;3.47;;;12.40;99.90;;;;;;5021641;28;20049;-53
2022/04/28 11:48:54;;;;;;;9.73;2.97;;;12.00;99.90;;;;;;5037824;28;20045;-51
2022/04/28 11:51:24;;;;;;;16.83;4.57;;;12.10;99.90;;;;;;5038497;28;20127;-52
2022/04/28 11:53:50;;;;;;;7.30;2.50;;;12.10;99.90;;;;;;5038842;28;20086;-51
2022/04/28 11:56:31;;;;;;;16.33;3.03;;;12.00;99.90;;;;;;5038084;28;20089;-50
2022/04/28 11:59:01;;;;;;;11.02;2.78;;;12.00;99.90;;;;;;5039572;28;20048;-52
2022/04/28 12:01:31;;;;;;;10.68;3.00;;;11.90;99.90;;;;;;5026864;28;20101;-52
2022/04/28 12:03:58;;;;;;;9.40;2.88;;;11.80;99.90;;;;;;5019329;28;20046;-50
2022/04/28 12:06:25;;;;;;;8.68;3.08;;;11.80;99.90;;;;;;5018542;28;20046;-52
2022/04/28 12:08:59;;;;;;;12.30;2.83;;;11.90;99.90;;;;;;5018378;28;20065;-52
2022/04/28 12:14:22;;;;;;;11.45;2.70;;;11.90;99.90;;;;;;5017683;28;20071;-53
2022/04/28 12:20:04;;;;;;;13.20;2.83;;;12.00;99.90;;;;;;4999463;28;20046;-49
2022/04/28 12:22:38;;;;;;;9.93;3.05;;;12.30;99.90;;;;;;4997692;28;20387;-53
2022/04/28 12:25:13;;;;;;;11.13;2.60;;;12.30;99.90;;;;;;4999569;28;20081;-52
2022/04/28 12:27:47;;;;;;;9.95;3.05;;;12.30;99.90;;;;;;4981136;28;20508;-52
2022/04/28 12:30:16;;;;;;;10.02;2.83;;;12.40;99.90;;;;;;4998973;28;20046;-55
2022/04/28 12:32:50;;;;;;;11.80;2.75;;;12.40;99.90;;;;;;4999835;28;20050;-54
2022/04/28 12:35:32;;;;;;;11.77;3.30;;;12.30;99.90;;;;;;4997503;28;20090;-50
2022/04/28 12:38:07;;;;;;;9.73;2.92;;;12.30;99.90;;;;;;4998806;28;20556;-53
2022/04/28 12:40:40;;;;;;;7.00;2.60;;;12.40;99.90;;;;;;5016058;28;20068;-52
2022/04/28 12:43:07;;;;;;;14.25;2.95;;;12.30;99.90;;;;;;5017738;28;20056;-53
2022/04/28 12:45:56;;;;;;;11.88;3.05;;;12.20;99.90;;;;;;5019050;28;20069;-52
2022/04/28 12:48:53;;;;;;;9.90;3.08;;;12.00;99.90;;;;;;5014869;28;20058;-52
2022/04/28 12:51:21;;;;;;;11.30;2.90;;;12.20;99.90;;;;;;4999063;28;20052;-53
2022/04/28 12:53:52;;;;;;;9.57;3.08;;;12.50;99.90;;;;;;5017818;28;20044;-52
2022/04/28 12:56:29;;;;;;;10.27;3.35;;;12.70;99.90;;;;;;5016953;28;20038;-52
2022/04/28 12:59:05;;;;;;;8.50;2.85;;;12.60;99.90;;;;;;5008487;28;20462;-53
2022/04/28 13:01:32;;;;;;;8.43;2.80;;;12.70;99.90;;;;;;5007181;28;20045;-52
2022/04/28 13:04:18;;;;;;;13.25;3.70;;;12.80;99.90;;;;;;5012744;28;20080;-52
2022/04/28 13:06:45;;;;;;;9.73;2.70;;;12.90;99.90;;;;;;5008882;28;20046;-52
2022/04/28 13:09:11;;;;;;;8.43;2.63;;;12.50;99.90;;;;;;5008024;28;20050;-53
2022/04/28 13:11:39;;;;;;;10.35;2.72;;;12.80;99.90;;;;;;5010852;28;20124;-53
2022/04/28 13:14:08;;;;;;;10.35;2.50;;;13.00;99.90;;;;;;5006422;28;20047;-52
2022/04/28 13:16:35;;;;;;;9.68;3.00;;;12.50;99.90;;;;;;5012563;28;20042;-53
2022/04/28 13:19:01;;;;;;;9.15;3.10;;;12.60;99.90;;;;;;5007479;28;20080;-53
2022/04/28 13:21:27;;;;;;;7.63;2.92;;;13.00;99.90;;;;;;5004608;28;20050;-53
2022/04/28 13:23:52;;;;;;;12.73;2.58;;;12.90;99.90;;;;;;5002467;28;20077;-53